createdAt,value
2023-03-20T00:00:17.417Z,3.1374
2023-03-20T00:01:19.071Z,3.1950
2023-03-20T00:02:20.724Z,3.1192
2023-03-20T00:03:22.393Z,2.9469
2023-03-20T00:04:24.050Z,2.5712
2023-03-20T00:05:25.648Z,2.8059
2023-03-20T00:06:27.302Z,2.8230
2023-03-20T00:07:28.978Z,3.0186
2023-03-20T00:08:30.605Z,3.2629
2023-03-20T00:09:32.247Z,2.8571
2023-03-20T00:10:33.901Z,2.7840
2023-03-20T00:11:35.559Z,2.8000
2023-03-20T00:12:37.224Z,3.5520
2023-03-20T00:13:38.848Z,3.0306
2023-03-20T00:14:41.489Z,3.1321
2023-03-20T00:15:42.216Z,2.9780
2023-03-20T00:16:43.848Z,2.9852
2023-03-20T00:17:45.491Z,2.8622
2023-03-20T00:18:47.100Z,3.2244
2023-03-20T00:19:48.809Z,2.9852
2023-03-20T00:20:50.432Z,3.0578
2023-03-20T00:21:52.061Z,2.7601
2023-03-20T00:22:53.755Z,2.8876
2023-03-20T00:23:55.358Z,2.7071
2023-03-20T00:24:57.025Z,2.9258
2023-03-20T00:25:58.672Z,2.7700
2023-03-20T00:27:00.302Z,3.3359
2023-03-20T00:28:01.968Z,3.0580
2023-03-20T00:29:03.605Z,3.0232
2023-03-20T00:30:05.262Z,3.0696
2023-03-20T00:31:06.922Z,2.9229
2023-03-20T00:32:08.519Z,2.9733
2023-03-20T00:33:10.228Z,2.9504
2023-03-20T00:34:11.816Z,2.7238
2023-03-20T00:35:13.465Z,2.8650
2023-03-20T00:36:15.175Z,2.8503
2023-03-20T00:37:16.792Z,2.8901
2023-03-20T00:38:18.451Z,2.7948
2023-03-20T00:39:20.102Z,2.7687
2023-03-20T00:40:21.740Z,2.8382
2023-03-20T00:41:23.391Z,2.7436
2023-03-20T00:42:25.061Z,2.6308
2023-03-20T00:43:26.706Z,2.6033
2023-03-20T00:44:28.323Z,2.8298
2023-03-20T00:45:29.947Z,2.8217
2023-03-20T00:46:31.599Z,2.6484
2023-03-20T00:47:33.241Z,2.6053
2023-03-20T00:48:34.946Z,2.7589
2023-03-20T00:49:36.568Z,2.8015
2023-03-20T00:50:38.199Z,2.6644
2023-03-20T00:51:39.841Z,2.6012
2023-03-20T00:52:41.512Z,2.6772
2023-03-20T00:53:43.151Z,2.4390
2023-03-20T00:54:44.786Z,2.4985
2023-03-20T00:55:46.446Z,2.5506
2023-03-20T00:56:48.080Z,2.5065
2023-03-20T00:57:49.731Z,2.3844
2023-03-20T00:58:51.400Z,2.5718
2023-03-20T00:59:53.057Z,2.7147
2023-03-20T01:00:54.721Z,2.8185
2023-03-20T01:01:56.345Z,2.2885
2023-03-20T01:02:58.003Z,2.5937
2023-03-20T01:03:59.675Z,2.7935
2023-03-20T01:05:01.360Z,2.2976
2023-03-20T01:06:02.947Z,2.2811
2023-03-20T01:07:04.595Z,2.5074
2023-03-20T01:08:06.241Z,2.3061
2023-03-20T01:09:07.904Z,2.4149
2023-03-20T01:10:09.535Z,2.5054
2023-03-20T01:11:11.319Z,2.6675
2023-03-20T01:12:12.828Z,2.2457
2023-03-20T01:13:14.462Z,2.6503
2023-03-20T01:14:16.143Z,2.1702
2023-03-20T01:15:17.788Z,2.1889
2023-03-20T01:16:19.479Z,2.2805
2023-03-20T01:17:21.254Z,2.4385
2023-03-20T01:18:22.744Z,2.7346
2023-03-20T01:19:24.411Z,2.5529
2023-03-20T01:20:26.008Z,2.1371
2023-03-20T01:21:27.642Z,2.3956
2023-03-20T01:22:29.287Z,2.5225
2023-03-20T01:23:30.930Z,2.4972
2023-03-20T01:24:32.600Z,2.7634
2023-03-20T01:25:34.553Z,2.3802
2023-03-20T01:26:35.920Z,2.5987
2023-03-20T01:27:37.528Z,2.4438
2023-03-20T01:28:39.184Z,2.5499
2023-03-20T01:29:40.878Z,2.4411
2023-03-20T01:30:42.504Z,2.5435
2023-03-20T01:31:44.164Z,2.3304
2023-03-20T01:32:45.794Z,2.6233
2023-03-20T01:33:47.427Z,2.7399
2023-03-20T01:34:49.115Z,2.2073
2023-03-20T01:35:50.809Z,2.2617
2023-03-20T01:36:52.395Z,2.4834
2023-03-20T01:37:54.121Z,2.4453
2023-03-20T01:38:55.793Z,2.5710
2023-03-20T01:39:57.441Z,2.1481
2023-03-20T01:40:59.064Z,2.4494
2023-03-20T01:42:00.714Z,2.2735
2023-03-20T01:43:02.373Z,2.0501
2023-03-20T01:44:04.015Z,2.3434
2023-03-20T01:45:05.697Z,1.9864
2023-03-20T01:46:07.316Z,2.2827
2023-03-20T01:47:08.941Z,2.4402
2023-03-20T01:48:10.586Z,2.1152
2023-03-20T01:49:12.233Z,2.3768
2023-03-20T01:50:13.945Z,2.4160
2023-03-20T01:51:15.549Z,2.2359
2023-03-20T01:52:17.215Z,1.9634
2023-03-20T01:53:18.859Z,2.2872
2023-03-20T01:54:20.528Z,2.2812
2023-03-20T01:55:22.204Z,2.1484
2023-03-20T01:56:23.837Z,2.1920
2023-03-20T01:57:25.464Z,2.1232
2023-03-20T01:58:27.117Z,2.0461
2023-03-20T01:59:28.768Z,1.9549
2023-03-20T02:00:30.440Z,2.0697
2023-03-20T02:01:32.143Z,2.4232
2023-03-20T02:02:33.723Z,2.1234
2023-03-20T02:03:35.351Z,2.2803
2023-03-20T02:04:37.059Z,2.3343
2023-03-20T02:05:38.715Z,2.0499
2023-03-20T02:06:40.343Z,2.0940
2023-03-20T02:07:41.976Z,1.9891
2023-03-20T02:08:43.613Z,1.8824
2023-03-20T02:09:45.246Z,2.2142
2023-03-20T02:10:46.924Z,2.2407
2023-03-20T02:11:48.542Z,2.0919
2023-03-20T02:12:50.203Z,1.8341
2023-03-20T02:13:51.874Z,2.2788
2023-03-20T02:14:53.508Z,1.9474
2023-03-20T02:15:55.172Z,1.9734
2023-03-20T02:16:56.833Z,2.2004
2023-03-20T02:17:58.448Z,1.9915
2023-03-20T02:19:00.128Z,2.1576
2023-03-20T02:20:01.757Z,2.1818
2023-03-20T02:21:03.420Z,2.1029
2023-03-20T02:22:05.047Z,2.1786
2023-03-20T02:23:06.736Z,2.1360
2023-03-20T02:24:08.374Z,1.8837
2023-03-20T02:25:10.047Z,2.2453
2023-03-20T02:26:11.704Z,1.9334
2023-03-20T02:27:13.326Z,2.0939
2023-03-20T02:28:14.963Z,2.0149
2023-03-20T02:29:16.610Z,2.0357
2023-03-20T02:30:18.288Z,1.9606
2023-03-20T02:31:19.947Z,1.9701
2023-03-20T02:32:21.553Z,1.6778
2023-03-20T02:33:23.208Z,2.0063
2023-03-20T02:34:24.852Z,1.8753
2023-03-20T02:35:26.507Z,2.0125
2023-03-20T02:36:28.174Z,1.7625
2023-03-20T02:37:29.785Z,1.5413
2023-03-20T02:38:31.456Z,1.6894
2023-03-20T02:39:33.110Z,1.8774
2023-03-20T02:40:34.765Z,1.9061
2023-03-20T02:41:36.467Z,1.5608
2023-03-20T02:42:38.015Z,1.8427
2023-03-20T02:43:39.696Z,1.6622
2023-03-20T02:44:41.319Z,1.7456
2023-03-20T02:45:42.992Z,1.6279
2023-03-20T02:46:44.653Z,1.8068
2023-03-20T02:47:46.277Z,1.7261
2023-03-20T02:48:47.926Z,1.9440
2023-03-20T02:49:49.620Z,1.7560
2023-03-20T02:50:51.313Z,1.8505
2023-03-20T02:51:52.963Z,1.8856
2023-03-20T02:52:54.658Z,1.8240
2023-03-20T02:53:56.215Z,1.5385
2023-03-20T02:54:57.854Z,1.6394
2023-03-20T02:55:59.507Z,1.7522
2023-03-20T02:57:01.182Z,1.6166
2023-03-20T02:58:02.797Z,1.8575
2023-03-20T02:59:04.440Z,1.7552
2023-03-20T03:00:06.109Z,1.5503
2023-03-20T03:01:07.795Z,1.6608
2023-03-20T03:02:09.459Z,1.6761
2023-03-20T03:03:11.096Z,1.4669
2023-03-20T03:04:12.709Z,1.4423
2023-03-20T03:05:14.354Z,1.7030
2023-03-20T03:06:16.011Z,1.4441
2023-03-20T03:07:17.685Z,1.8099
2023-03-20T03:08:19.301Z,1.6299
2023-03-20T03:09:20.978Z,1.7245
2023-03-20T03:10:22.620Z,1.4950
2023-03-20T03:11:24.248Z,1.8321
2023-03-20T03:12:25.929Z,1.8469
2023-03-20T03:13:27.554Z,1.6727
2023-03-20T03:14:29.223Z,1.6906
2023-03-20T03:15:30.879Z,1.6560
2023-03-20T03:16:32.517Z,1.6814
2023-03-20T03:17:34.190Z,1.4793
2023-03-20T03:18:35.829Z,1.2137
2023-03-20T03:19:37.462Z,1.4221
2023-03-20T03:20:39.089Z,1.6354
2023-03-20T03:21:40.735Z,1.3439
2023-03-20T03:22:42.427Z,1.4299
2023-03-20T03:23:44.074Z,1.4105
2023-03-20T03:24:45.706Z,1.4866
2023-03-20T03:25:47.360Z,1.5349
2023-03-20T03:26:49.010Z,1.5231
2023-03-20T03:27:50.668Z,1.3423
2023-03-20T03:28:52.308Z,1.7074
2023-03-20T03:29:54.041Z,1.6437
2023-03-20T03:30:55.589Z,1.5819
2023-03-20T03:31:57.220Z,1.6950
2023-03-20T03:32:58.977Z,1.6321
2023-03-20T03:34:00.551Z,1.5125
2023-03-20T03:35:02.176Z,1.4956
2023-03-20T03:36:03.881Z,1.3260
2023-03-20T03:37:05.465Z,1.2360
2023-03-20T03:38:07.124Z,1.3008
2023-03-20T03:39:08.762Z,1.4761
2023-03-20T03:40:10.873Z,1.2747
2023-03-20T03:41:12.061Z,1.4624
2023-03-20T03:42:13.706Z,1.3509
2023-03-20T03:43:15.369Z,1.7133
2023-03-20T03:44:16.995Z,1.4109
2023-03-20T03:45:18.660Z,1.4000
2023-03-20T03:46:20.301Z,1.4941
2023-03-20T03:47:21.960Z,1.6040
2023-03-20T03:48:23.598Z,1.3931
2023-03-20T03:49:25.256Z,1.2395
2023-03-20T03:50:26.909Z,1.5867
2023-03-20T03:51:28.563Z,1.2651
2023-03-20T03:52:30.222Z,1.5578
2023-03-20T03:53:31.910Z,1.7151
2023-03-20T03:54:33.505Z,1.4240
2023-03-20T03:55:35.461Z,1.4682
2023-03-20T03:56:36.764Z,1.6410
2023-03-20T03:57:38.413Z,1.2852
2023-03-20T03:58:40.094Z,1.4000
2023-03-20T03:59:41.740Z,1.3850
2023-03-20T04:00:43.395Z,1.4356
2023-03-20T04:01:45.039Z,1.2792
2023-03-20T04:02:46.670Z,1.3163
2023-03-20T04:03:48.352Z,1.2574
2023-03-20T04:04:50.048Z,1.1537
2023-03-20T04:05:51.652Z,1.2772
2023-03-20T04:06:53.282Z,1.4712
2023-03-20T04:07:54.919Z,1.2172
2023-03-20T04:08:56.591Z,1.4498
2023-03-20T04:09:58.228Z,1.3233
2023-03-20T04:10:59.877Z,1.3404
2023-03-20T04:12:01.530Z,1.4259
2023-03-20T04:13:03.170Z,1.2675
2023-03-20T04:14:04.852Z,1.2407
2023-03-20T04:15:06.463Z,1.4423
2023-03-20T04:16:08.125Z,1.2327
2023-03-20T04:17:09.778Z,1.3677
2023-03-20T04:18:11.380Z,1.2881
2023-03-20T04:19:13.057Z,1.1398
2023-03-20T04:20:14.688Z,1.1308
2023-03-20T04:21:16.336Z,1.0637
2023-03-20T04:22:17.974Z,1.2450
2023-03-20T04:23:19.626Z,1.1845
2023-03-20T04:24:21.281Z,1.1707
2023-03-20T04:25:22.942Z,1.2352
2023-03-20T04:26:24.566Z,1.1293
2023-03-20T04:27:26.212Z,1.3327
2023-03-20T04:28:27.888Z,1.1694
2023-03-20T04:29:29.540Z,1.0908
2023-03-20T04:30:31.209Z,1.3449
2023-03-20T04:31:32.923Z,1.3295
2023-03-20T04:32:34.487Z,1.2806
2023-03-20T04:33:36.134Z,1.1081
2023-03-20T04:34:37.773Z,0.9532
2023-03-20T04:35:39.678Z,1.2782
2023-03-20T04:36:41.092Z,1.1117
2023-03-20T04:37:42.748Z,1.0564
2023-03-20T04:38:44.391Z,1.0758
2023-03-20T04:39:46.069Z,0.9783
2023-03-20T04:40:47.697Z,1.4581
2023-03-20T04:41:49.365Z,1.4385
2023-03-20T04:42:50.993Z,1.2206
2023-03-20T04:43:52.642Z,1.1957
2023-03-20T04:44:54.277Z,1.2676
2023-03-20T04:45:55.948Z,1.1338
2023-03-20T04:46:57.590Z,1.2062
2023-03-20T04:47:59.235Z,1.2911
2023-03-20T04:49:00.888Z,1.2490
2023-03-20T04:50:02.567Z,1.2461
2023-03-20T04:51:04.183Z,1.2911
2023-03-20T04:52:05.836Z,1.2345
2023-03-20T04:53:07.460Z,1.3528
2023-03-20T04:54:09.108Z,1.0960
2023-03-20T04:55:10.816Z,1.2913
2023-03-20T04:56:12.413Z,1.2332
2023-03-20T04:57:14.076Z,1.2126
2023-03-20T04:58:15.712Z,1.0984
2023-03-20T04:59:17.361Z,1.3162
2023-03-20T05:00:19.053Z,1.3095
2023-03-20T05:01:20.733Z,1.1417
2023-03-20T05:02:22.369Z,1.1944
2023-03-20T05:03:24.310Z,1.1245
2023-03-20T05:04:25.724Z,1.0302
2023-03-20T05:05:27.314Z,0.9607
2023-03-20T05:06:28.948Z,1.1363
2023-03-20T05:07:30.593Z,1.0981
2023-03-20T05:08:32.258Z,1.0132
2023-03-20T05:09:33.886Z,1.0867
2023-03-20T05:10:35.558Z,1.0855
2023-03-20T05:11:37.161Z,1.1249
2023-03-20T05:12:38.820Z,1.2273
2023-03-20T05:13:40.479Z,1.2561
2023-03-20T05:14:42.121Z,1.0243
2023-03-20T05:15:43.786Z,1.0910
2023-03-20T05:16:46.225Z,1.1148
2023-03-20T05:17:47.252Z,1.1387
2023-03-20T05:18:48.714Z,1.1455
2023-03-20T05:19:50.362Z,0.9847
2023-03-20T05:20:52.068Z,1.3057
2023-03-20T05:21:53.658Z,1.3050
2023-03-20T05:22:55.320Z,1.2921
2023-03-20T05:23:56.967Z,1.1280
2023-03-20T05:24:58.620Z,1.0745
2023-03-20T05:26:00.319Z,1.2618
2023-03-20T05:27:01.933Z,1.1398
2023-03-20T05:28:03.578Z,1.1386
2023-03-20T05:29:05.222Z,1.0871
2023-03-20T05:30:06.881Z,1.0966
2023-03-20T05:31:08.626Z,1.1085
2023-03-20T05:32:10.189Z,1.1852
2023-03-20T05:33:11.911Z,1.2379
2023-03-20T05:34:13.548Z,1.1267
2023-03-20T05:35:15.136Z,1.0884
2023-03-20T05:36:16.831Z,1.2653
2023-03-20T05:37:18.449Z,1.2991
2023-03-20T05:38:20.096Z,1.2935
2023-03-20T05:39:21.743Z,1.3343
2023-03-20T05:40:23.392Z,1.1090
2023-03-20T05:41:25.154Z,1.3079
2023-03-20T05:42:26.742Z,1.2857
2023-03-20T05:43:28.405Z,1.1779
2023-03-20T05:44:30.030Z,1.1682
2023-03-20T05:45:31.677Z,1.5436
2023-03-20T05:46:33.449Z,1.9177
2023-03-20T05:47:34.977Z,1.7036
2023-03-20T05:48:36.667Z,1.6233
2023-03-20T05:49:38.310Z,2.0236
2023-03-20T05:50:39.920Z,1.7603
2023-03-20T05:51:41.605Z,1.8816
2023-03-20T05:52:43.225Z,1.8902
2023-03-20T05:53:44.895Z,2.4541
2023-03-20T05:54:46.535Z,2.6355
2023-03-20T05:55:48.185Z,2.3794
2023-03-20T05:56:49.989Z,2.5941
2023-03-20T05:57:51.487Z,2.8778
2023-03-20T05:58:53.172Z,2.7363
2023-03-20T05:59:54.829Z,2.7481
2023-03-20T06:00:56.464Z,2.7243
2023-03-20T06:01:58.141Z,2.7561
2023-03-20T06:02:59.848Z,3.0843
2023-03-20T06:04:01.430Z,3.2873
2023-03-20T06:05:03.063Z,3.1480
2023-03-20T06:06:04.741Z,3.0066
2023-03-20T06:07:06.369Z,2.8468
2023-03-20T06:08:08.075Z,2.8631
2023-03-20T06:09:09.655Z,2.7547
2023-03-20T06:10:11.297Z,2.9050
2023-03-20T06:11:12.929Z,3.0287
2023-03-20T06:12:14.608Z,2.8427
2023-03-20T06:13:16.251Z,2.7875
2023-03-20T06:14:17.908Z,3.0109
2023-03-20T06:15:19.543Z,2.8400
2023-03-20T06:16:21.298Z,2.8260
2023-03-20T06:17:22.865Z,3.1228
2023-03-20T06:18:24.491Z,2.6957
2023-03-20T06:19:26.149Z,2.5971
2023-03-20T06:20:27.794Z,2.4720
2023-03-20T06:21:29.413Z,2.6633
2023-03-20T06:22:31.093Z,2.6306
2023-03-20T06:23:32.774Z,2.4433
2023-03-20T06:24:34.542Z,2.5005
2023-03-20T06:25:36.348Z,2.6235
2023-03-20T06:26:37.713Z,2.3704
2023-03-20T06:27:39.383Z,2.4979
2023-03-20T06:28:41.051Z,2.8184
2023-03-20T06:29:42.673Z,2.5221
2023-03-20T06:30:44.331Z,2.7559
2023-03-20T06:31:45.966Z,2.6594
2023-03-20T06:32:47.686Z,2.4706
2023-03-20T06:33:49.259Z,2.6359
2023-03-20T06:34:50.905Z,2.5191
2023-03-20T06:35:52.628Z,2.6481
2023-03-20T06:36:54.246Z,2.4353
2023-03-20T06:37:55.869Z,2.3054
2023-03-20T06:38:57.530Z,2.6373
2023-03-20T06:39:59.159Z,1.9905
2023-03-20T06:41:00.876Z,2.2703
2023-03-20T06:42:02.481Z,2.2061
2023-03-20T06:43:04.574Z,2.3321
2023-03-20T06:44:06.084Z,2.6037
2023-03-20T06:45:07.624Z,2.2461
2023-03-20T06:46:09.263Z,2.4188
2023-03-20T06:47:10.954Z,2.2003
2023-03-20T06:48:12.498Z,1.9487
2023-03-20T06:49:14.063Z,1.9948
2023-03-20T06:50:15.770Z,1.9508
2023-03-20T06:51:17.696Z,2.0762
2023-03-20T06:52:19.111Z,2.1476
2023-03-20T06:53:20.684Z,2.2943
2023-03-20T06:54:22.318Z,2.0658
2023-03-20T06:55:24.262Z,2.1760
